Hualapai, Arizona
Current Conditions -  °F | °C
As of 11:54 AM on Thursday 30 Oct 2014 (Local Time) from KGCN Reporting Station
Clear Clear  
Wind Chill: 21°   Ceiling: Unl
Heat Index: 21°   Visibility: 10mi
Dew Point: -9°   Wind: 9mph
Humidity: 13%   Direction: 110°ESE
Pressure: 30.33"   Gusts: NA
Location:  35.9°N, 113.11°W
Report Text: KGCN 301854Z 11008KT 080V170 10SM CLR 21/M09 A3033 RMK AO2 SLP214 T02061089
Loading
Personal Weather Stations






























Interactive Weather Map
Tropical Storm Tracking
New forecast layout! Learn more

10-Day Weather Forecast

Advertisements
Track Severe Weather on mobile